Accueil
METAR-TAF:

METAR-TAF

Aéroports :

Aéroport international de San Salvador

El Salvador, El Salvador

latitude: 13-26N, longitude: 089-03W, altitude: 25 m

Observation

Le bulletin a été fait il y a 37 minutes, à 00:50 UTC
Vent 5 kt de nord-ouest, variant entre ouest/sud-ouest et nord/nord-ouest
Température 27°C
Humidité 74%
Pression 1009 hPa
Visibilité 10 km ou plus
pas de nuages en-dessous de 1500 mètres et pas de cumulonimbus.

METAR: MSLP 180050Z 31005KT 250V330 CAVOK 27/22 Q1009 A2980 NOSIG

Heure: 19:27 (01:27 UTC)

Prévision

Le bulletin a été fait il y a 4 heures et 2 minutes, à 21:25 UTC
Prévision valable du 18 à 00 UTC au 18 à 24 UTC
Vent 10 kt de nord/nord-est
Visibilité 10 km ou plus
pas de nuages en-dessous de 1500 mètres et pas de cumulonimbus.

TAF: MSLP 172125Z 1800/1824 02010KT CAVOK TX35/1818Z TN23/1812Z

Observations et prévisions météorologiques de plus de 4000 aéroports (messages METAR et TAF).

Les stations disponibles sont représentées par des disques jaunes et rouges sur la carte.

Passer la souris dessus pour voir le nom de la station.

Cliquer dessus pour voir les observations et prévisions météorologiques.

Pour changer de carte: cliquez sur les boutons verts avec une croix noire pour zoomer, sur le bouton vert avec un tiret pour effectuer un zoom arrière, ou sur les flèches vertes pour les cartes adjacentes.


METAR-TAF: